sensor_id;sensor_type;location;lat;lon;timestamp;P1;durP1;ratioP1;P2;durP2;ratioP2
34567;SDS011;20806;50.746;7.116;2022-08-05T00:00:48;0.40;;;0.30;;
34567;SDS011;20806;50.746;7.116;2022-08-05T00:03:14;0.50;;;0.30;;
34567;SDS011;20806;50.746;7.116;2022-08-05T00:05:40;0.30;;;0.30;;
34567;SDS011;20806;50.746;7.116;2022-08-05T00:08:07;0.68;;;0.30;;
34567;SDS011;20806;50.746;7.116;2022-08-05T00:10:33;1.17;;;0.40;;
34567;SDS011;20806;50.746;7.116;2022-08-05T00:12:59;0.40;;;0.40;;
34567;SDS011;20806;50.746;7.116;2022-08-05T00:15:25;0.32;;;0.30;;
34567;SDS011;20806;50.746;7.116;2022-08-05T00:17:51;0.30;;;0.30;;
34567;SDS011;20806;50.746;7.116;2022-08-05T00:20:17;1.00;;;0.30;;
34567;SDS011;20806;50.746;7.116;2022-08-05T00:22:43;0.30;;;0.30;;
34567;SDS011;20806;50.746;7.116;2022-08-05T00:25:09;0.20;;;0.20;;
34567;SDS011;20806;50.746;7.116;2022-08-05T00:27:35;0.68;;;0.35;;
34567;SDS011;20806;50.746;7.116;2022-08-05T00:30:01;0.50;;;0.30;;
34567;SDS011;20806;50.746;7.116;2022-08-05T00:32:27;0.30;;;0.30;;
34567;SDS011;20806;50.746;7.116;2022-08-05T00:34:55;0.30;;;0.30;;
34567;SDS011;20806;50.746;7.116;2022-08-05T00:37:21;1.20;;;0.32;;
34567;SDS011;20806;50.746;7.116;2022-08-05T00:39:46;0.70;;;0.30;;
34567;SDS011;20806;50.746;7.116;2022-08-05T00:42:14;0.40;;;0.40;;
34567;SDS011;20806;50.746;7.116;2022-08-05T00:44:42;0.60;;;0.30;;
34567;SDS011;20806;50.746;7.116;2022-08-05T00:47:08;0.70;;;0.40;;
34567;SDS011;20806;50.746;7.116;2022-08-05T00:49:34;0.50;;;0.38;;
34567;SDS011;20806;50.746;7.116;2022-08-05T00:52:00;0.40;;;0.40;;
34567;SDS011;20806;50.746;7.116;2022-08-05T00:54:27;0.40;;;0.40;;
34567;SDS011;20806;50.746;7.116;2022-08-05T00:56:54;0.50;;;0.40;;
34567;SDS011;20806;50.746;7.116;2022-08-05T00:59:20;0.30;;;0.28;;
34567;SDS011;20806;50.746;7.116;2022-08-05T01:01:48;0.40;;;0.40;;
34567;SDS011;20806;50.746;7.116;2022-08-05T01:04:14;0.95;;;0.47;;
34567;SDS011;20806;50.746;7.116;2022-08-05T01:06:40;0.60;;;0.50;;
34567;SDS011;20806;50.746;7.116;2022-08-05T01:09:06;0.80;;;0.50;;
34567;SDS011;20806;50.746;7.116;2022-08-05T01:11:32;0.40;;;0.40;;
34567;SDS011;20806;50.746;7.116;2022-08-05T01:14:44;0.40;;;0.40;;
34567;SDS011;20806;50.746;7.116;2022-08-05T01:16:50;0.50;;;0.50;;
34567;SDS011;20806;50.746;7.116;2022-08-05T01:21:49;0.60;;;0.60;;
34567;SDS011;20806;50.746;7.116;2022-08-05T01:24:22;0.90;;;0.73;;
34567;SDS011;20806;50.746;7.116;2022-08-05T01:26:56;0.80;;;0.80;;
34567;SDS011;20806;50.746;7.116;2022-08-05T01:29:32;1.80;;;0.73;;
34567;SDS011;20806;50.746;7.116;2022-08-05T01:32:00;0.70;;;0.70;;
34567;SDS011;20806;50.746;7.116;2022-08-05T01:34:28;1.00;;;0.70;;
34567;SDS011;20806;50.746;7.116;2022-08-05T01:37:06;0.70;;;0.70;;
34567;SDS011;20806;50.746;7.116;2022-08-05T01:39:34;0.75;;;0.55;;
34567;SDS011;20806;50.746;7.116;2022-08-05T01:42:01;1.00;;;0.90;;
34567;SDS011;20806;50.746;7.116;2022-08-05T01:44:27;0.97;;;0.70;;
34567;SDS011;20806;50.746;7.116;2022-08-05T01:46:55;0.82;;;0.60;;
34567;SDS011;20806;50.746;7.116;2022-08-05T01:49:22;0.70;;;0.70;;
34567;SDS011;20806;50.746;7.116;2022-08-05T01:51:55;0.68;;;0.63;;
34567;SDS011;20806;50.746;7.116;2022-08-05T01:54:22;0.70;;;0.70;;
34567;SDS011;20806;50.746;7.116;2022-08-05T01:56:50;0.60;;;0.60;;
34567;SDS011;20806;50.746;7.116;2022-08-05T01:59:17;0.50;;;0.50;;
34567;SDS011;20806;50.746;7.116;2022-08-05T02:01:44;1.42;;;0.75;;
34567;SDS011;20806;50.746;7.116;2022-08-05T02:04:12;0.60;;;0.60;;
34567;SDS011;20806;50.746;7.116;2022-08-05T02:06:39;1.05;;;0.70;;
34567;SDS011;20806;50.746;7.116;2022-08-05T02:09:05;0.60;;;0.60;;
34567;SDS011;20806;50.746;7.116;2022-08-05T02:11:36;1.17;;;0.90;;
34567;SDS011;20806;50.746;7.116;2022-08-05T02:14:12;0.90;;;0.90;;
34567;SDS011;20806;50.746;7.116;2022-08-05T02:19:19;0.90;;;0.73;;
34567;SDS011;20806;50.746;7.116;2022-08-05T02:22:32;1.03;;;0.80;;
34567;SDS011;20806;50.746;7.116;2022-08-05T02:24:38;0.95;;;0.90;;
34567;SDS011;20806;50.746;7.116;2022-08-05T02:27:06;1.42;;;1.05;;
34567;SDS011;20806;50.746;7.116;2022-08-05T02:29:33;1.83;;;1.10;;
34567;SDS011;20806;50.746;7.116;2022-08-05T02:32:00;1.45;;;1.00;;
34567;SDS011;20806;50.746;7.116;2022-08-05T02:34:28;2.30;;;1.00;;
34567;SDS011;20806;50.746;7.116;2022-08-05T02:36:57;0.80;;;0.80;;
34567;SDS011;20806;50.746;7.116;2022-08-05T02:39:24;2.53;;;1.00;;
34567;SDS011;20806;50.746;7.116;2022-08-05T02:41:52;1.77;;;1.20;;
34567;SDS011;20806;50.746;7.116;2022-08-05T02:44:19;1.10;;;1.00;;
34567;SDS011;20806;50.746;7.116;2022-08-05T02:46:47;2.00;;;1.08;;
34567;SDS011;20806;50.746;7.116;2022-08-05T02:49:14;0.90;;;0.90;;
34567;SDS011;20806;50.746;7.116;2022-08-05T02:51:41;1.00;;;1.00;;
34567;SDS011;20806;50.746;7.116;2022-08-05T02:54:07;1.00;;;0.90;;
34567;SDS011;20806;50.746;7.116;2022-08-05T02:56:34;1.20;;;0.90;;
34567;SDS011;20806;50.746;7.116;2022-08-05T02:59:01;1.20;;;0.68;;
34567;SDS011;20806;50.746;7.116;2022-08-05T03:01:28;0.80;;;0.70;;
34567;SDS011;20806;50.746;7.116;2022-08-05T03:03:58;1.05;;;0.70;;
34567;SDS011;20806;50.746;7.116;2022-08-05T03:06:24;1.55;;;0.80;;
34567;SDS011;20806;50.746;7.116;2022-08-05T03:08:51;0.75;;;0.75;;
34567;SDS011;20806;50.746;7.116;2022-08-05T03:11:22;0.80;;;0.60;;
34567;SDS011;20806;50.746;7.116;2022-08-05T03:13:49;0.60;;;0.60;;
34567;SDS011;20806;50.746;7.116;2022-08-05T03:16:15;0.80;;;0.50;;
34567;SDS011;20806;50.746;7.116;2022-08-05T03:18:41;0.57;;;0.50;;
34567;SDS011;20806;50.746;7.116;2022-08-05T03:21:08;0.55;;;0.55;;
34567;SDS011;20806;50.746;7.116;2022-08-05T03:23:34;1.40;;;0.60;;
34567;SDS011;20806;50.746;7.116;2022-08-05T03:26:01;1.00;;;0.60;;
34567;SDS011;20806;50.746;7.116;2022-08-05T03:28:27;0.80;;;0.60;;
34567;SDS011;20806;50.746;7.116;2022-08-05T03:30:54;0.90;;;0.60;;
34567;SDS011;20806;50.746;7.116;2022-08-05T03:33:20;0.63;;;0.63;;
34567;SDS011;20806;50.746;7.116;2022-08-05T03:35:47;0.77;;;0.77;;
34567;SDS011;20806;50.746;7.116;2022-08-05T03:38:13;1.70;;;1.00;;
34567;SDS011;20806;50.746;7.116;2022-08-05T03:40:40;0.98;;;0.80;;
34567;SDS011;20806;50.746;7.116;2022-08-05T03:43:06;1.73;;;1.10;;
34567;SDS011;20806;50.746;7.116;2022-08-05T03:45:32;1.05;;;0.90;;
34567;SDS011;20806;50.746;7.116;2022-08-05T03:47:58;1.10;;;1.00;;
34567;SDS011;20806;50.746;7.116;2022-08-05T03:50:32;0.95;;;0.90;;
34567;SDS011;20806;50.746;7.116;2022-08-05T03:53:02;0.90;;;0.85;;
34567;SDS011;20806;50.746;7.116;2022-08-05T03:55:34;0.80;;;0.80;;
34567;SDS011;20806;50.746;7.116;2022-08-05T03:58:02;0.80;;;0.80;;
34567;SDS011;20806;50.746;7.116;2022-08-05T04:00:29;0.60;;;0.60;;
34567;SDS011;20806;50.746;7.116;2022-08-05T04:02:57;0.60;;;0.50;;
34567;SDS011;20806;50.746;7.116;2022-08-05T04:05:25;0.88;;;0.70;;
34567;SDS011;20806;50.746;7.116;2022-08-05T04:07:51;0.93;;;0.70;;
34567;SDS011;20806;50.746;7.116;2022-08-05T04:10:17;0.95;;;0.70;;
34567;SDS011;20806;50.746;7.116;2022-08-05T04:12:44;0.68;;;0.60;;
34567;SDS011;20806;50.746;7.116;2022-08-05T04:15:11;0.60;;;0.60;;
34567;SDS011;20806;50.746;7.116;2022-08-05T04:17:38;0.50;;;0.50;;
34567;SDS011;20806;50.746;7.116;2022-08-05T04:20:04;0.47;;;0.47;;
34567;SDS011;20806;50.746;7.116;2022-08-05T04:22:30;0.50;;;0.50;;
34567;SDS011;20806;50.746;7.116;2022-08-05T04:24:56;0.95;;;0.57;;
34567;SDS011;20806;50.746;7.116;2022-08-05T04:27:23;0.60;;;0.43;;
34567;SDS011;20806;50.746;7.116;2022-08-05T04:29:49;0.40;;;0.40;;
34567;SDS011;20806;50.746;7.116;2022-08-05T04:32:15;0.80;;;0.60;;
34567;SDS011;20806;50.746;7.116;2022-08-05T04:34:41;0.80;;;0.70;;
34567;SDS011;20806;50.746;7.116;2022-08-05T04:37:08;0.70;;;0.60;;
34567;SDS011;20806;50.746;7.116;2022-08-05T04:39:34;0.57;;;0.57;;
34567;SDS011;20806;50.746;7.116;2022-08-05T04:42:00;0.70;;;0.50;;
34567;SDS011;20806;50.746;7.116;2022-08-05T04:44:26;0.93;;;0.70;;
34567;SDS011;20806;50.746;7.116;2022-08-05T04:46:52;0.98;;;0.80;;
34567;SDS011;20806;50.746;7.116;2022-08-05T04:49:18;2.40;;;2.20;;
34567;SDS011;20806;50.746;7.116;2022-08-05T04:51:44;1.50;;;1.27;;
34567;SDS011;20806;50.746;7.116;2022-08-05T04:54:11;1.08;;;1.08;;
34567;SDS011;20806;50.746;7.116;2022-08-05T04:56:38;1.30;;;1.00;;
34567;SDS011;20806;50.746;7.116;2022-08-05T04:59:04;0.85;;;0.80;;
34567;SDS011;20806;50.746;7.116;2022-08-05T05:01:30;0.70;;;0.70;;
34567;SDS011;20806;50.746;7.116;2022-08-05T05:03:56;1.20;;;0.93;;
34567;SDS011;20806;50.746;7.116;2022-08-05T05:06:22;0.73;;;0.70;;
34567;SDS011;20806;50.746;7.116;2022-08-05T05:08:50;0.80;;;0.80;;
34567;SDS011;20806;50.746;7.116;2022-08-05T05:11:17;1.17;;;0.80;;
34567;SDS011;20806;50.746;7.116;2022-08-05T05:13:43;1.10;;;0.70;;
34567;SDS011;20806;50.746;7.116;2022-08-05T05:16:09;1.27;;;0.80;;
34567;SDS011;20806;50.746;7.116;2022-08-05T05:18:35;0.80;;;0.80;;
34567;SDS011;20806;50.746;7.116;2022-08-05T05:21:01;1.10;;;1.00;;
34567;SDS011;20806;50.746;7.116;2022-08-05T05:23:27;1.67;;;1.08;;
34567;SDS011;20806;50.746;7.116;2022-08-05T05:25:53;0.93;;;0.88;;
34567;SDS011;20806;50.746;7.116;2022-08-05T05:28:19;1.10;;;0.90;;
34567;SDS011;20806;50.746;7.116;2022-08-05T05:30:45;0.80;;;0.68;;
34567;SDS011;20806;50.746;7.116;2022-08-05T05:33:11;1.17;;;0.90;;
34567;SDS011;20806;50.746;7.116;2022-08-05T05:35:37;1.10;;;0.95;;
34567;SDS011;20806;50.746;7.116;2022-08-05T05:38:04;0.85;;;0.80;;
34567;SDS011;20806;50.746;7.116;2022-08-05T05:40:32;0.77;;;0.75;;
34567;SDS011;20806;50.746;7.116;2022-08-05T05:42:59;0.90;;;0.90;;
34567;SDS011;20806;50.746;7.116;2022-08-05T05:45:25;0.90;;;0.88;;
34567;SDS011;20806;50.746;7.116;2022-08-05T05:47:51;0.80;;;0.73;;
34567;SDS011;20806;50.746;7.116;2022-08-05T05:50:17;1.20;;;0.90;;
34567;SDS011;20806;50.746;7.116;2022-08-05T05:52:44;0.77;;;0.75;;
34567;SDS011;20806;50.746;7.116;2022-08-05T05:55:11;0.60;;;0.60;;
34567;SDS011;20806;50.746;7.116;2022-08-05T05:57:38;0.80;;;0.80;;
34567;SDS011;20806;50.746;7.116;2022-08-05T06:00:05;0.60;;;0.60;;
34567;SDS011;20806;50.746;7.116;2022-08-05T06:02:31;0.73;;;0.73;;
34567;SDS011;20806;50.746;7.116;2022-08-05T06:04:57;0.70;;;0.70;;
34567;SDS011;20806;50.746;7.116;2022-08-05T06:07:23;0.70;;;0.70;;
34567;SDS011;20806;50.746;7.116;2022-08-05T06:09:49;0.85;;;0.80;;
34567;SDS011;20806;50.746;7.116;2022-08-05T06:12:15;1.00;;;1.00;;
34567;SDS011;20806;50.746;7.116;2022-08-05T06:14:41;1.20;;;1.10;;
34567;SDS011;20806;50.746;7.116;2022-08-05T06:17:08;1.77;;;1.48;;
34567;SDS011;20806;50.746;7.116;2022-08-05T06:19:35;1.15;;;1.05;;
34567;SDS011;20806;50.746;7.116;2022-08-05T06:22:04;1.20;;;1.13;;
34567;SDS011;20806;50.746;7.116;2022-08-05T06:24:30;1.00;;;1.00;;
34567;SDS011;20806;50.746;7.116;2022-08-05T06:26:56;1.37;;;1.13;;
34567;SDS011;20806;50.746;7.116;2022-08-05T06:29:22;1.08;;;1.08;;
34567;SDS011;20806;50.746;7.116;2022-08-05T06:31:48;1.40;;;1.30;;
34567;SDS011;20806;50.746;7.116;2022-08-05T06:34:14;1.30;;;1.20;;
34567;SDS011;20806;50.746;7.116;2022-08-05T06:36:40;1.95;;;1.85;;
34567;SDS011;20806;50.746;7.116;2022-08-05T06:39:06;2.20;;;2.10;;
34567;SDS011;20806;50.746;7.116;2022-08-05T06:41:32;2.77;;;2.57;;
34567;SDS011;20806;50.746;7.116;2022-08-05T06:43:58;2.50;;;2.30;;
34567;SDS011;20806;50.746;7.116;2022-08-05T06:46:24;2.53;;;2.42;;
34567;SDS011;20806;50.746;7.116;2022-08-05T06:48:51;2.80;;;2.60;;
34567;SDS011;20806;50.746;7.116;2022-08-05T06:51:16;3.42;;;3.22;;
34567;SDS011;20806;50.746;7.116;2022-08-05T06:53:42;3.60;;;3.30;;
34567;SDS011;20806;50.746;7.116;2022-08-05T06:56:08;5.40;;;5.00;;
34567;SDS011;20806;50.746;7.116;2022-08-05T06:58:34;5.85;;;5.40;;
34567;SDS011;20806;50.746;7.116;2022-08-05T07:01:01;6.03;;;5.57;;
34567;SDS011;20806;50.746;7.116;2022-08-05T07:03:27;6.40;;;5.88;;
34567;SDS011;20806;50.746;7.116;2022-08-05T07:05:54;6.60;;;6.10;;
34567;SDS011;20806;50.746;7.116;2022-08-05T07:08:20;6.40;;;5.90;;
34567;SDS011;20806;50.746;7.116;2022-08-05T07:10:46;6.95;;;6.43;;
34567;SDS011;20806;50.746;7.116;2022-08-05T07:13:12;6.65;;;6.15;;
34567;SDS011;20806;50.746;7.116;2022-08-05T07:15:57;5.63;;;5.22;;
34567;SDS011;20806;50.746;7.116;2022-08-05T07:18:42;5.93;;;5.43;;
34567;SDS011;20806;50.746;7.116;2022-08-05T07:21:08;6.10;;;5.70;;
34567;SDS011;20806;50.746;7.116;2022-08-05T07:23:34;5.82;;;5.43;;
34567;SDS011;20806;50.746;7.116;2022-08-05T07:26:01;5.50;;;5.10;;
34567;SDS011;20806;50.746;7.116;2022-08-05T07:28:27;5.70;;;5.30;;
34567;SDS011;20806;50.746;7.116;2022-08-05T07:30:53;5.30;;;5.00;;
34567;SDS011;20806;50.746;7.116;2022-08-05T07:33:19;5.80;;;5.40;;
34567;SDS011;20806;50.746;7.116;2022-08-05T07:35:46;5.45;;;5.13;;
34567;SDS011;20806;50.746;7.116;2022-08-05T07:38:15;5.07;;;4.78;;
34567;SDS011;20806;50.746;7.116;2022-08-05T07:40:42;4.38;;;4.18;;
34567;SDS011;20806;50.746;7.116;2022-08-05T07:43:08;4.90;;;4.60;;
34567;SDS011;20806;50.746;7.116;2022-08-05T07:45:34;4.05;;;3.85;;
34567;SDS011;20806;50.746;7.116;2022-08-05T07:48:00;4.27;;;4.00;;
34567;SDS011;20806;50.746;7.116;2022-08-05T07:50:27;4.15;;;3.90;;
34567;SDS011;20806;50.746;7.116;2022-08-05T07:52:53;4.47;;;4.18;;
34567;SDS011;20806;50.746;7.116;2022-08-05T07:55:20;4.18;;;3.97;;
34567;SDS011;20806;50.746;7.116;2022-08-05T07:57:46;4.72;;;4.50;;
34567;SDS011;20806;50.746;7.116;2022-08-05T08:00:12;4.72;;;4.45;;
34567;SDS011;20806;50.746;7.116;2022-08-05T08:02:39;4.50;;;4.20;;
34567;SDS011;20806;50.746;7.116;2022-08-05T08:05:05;4.78;;;4.47;;
34567;SDS011;20806;50.746;7.116;2022-08-05T08:07:31;4.30;;;4.00;;
34567;SDS011;20806;50.746;7.116;2022-08-05T08:09:57;4.30;;;4.00;;
34567;SDS011;20806;50.746;7.116;2022-08-05T08:12:24;4.23;;;4.03;;
34567;SDS011;20806;50.746;7.116;2022-08-05T08:14:51;5.50;;;5.10;;
34567;SDS011;20806;50.746;7.116;2022-08-05T08:17:16;5.20;;;4.80;;
34567;SDS011;20806;50.746;7.116;2022-08-05T08:19:43;4.87;;;4.47;;
34567;SDS011;20806;50.746;7.116;2022-08-05T08:22:09;4.30;;;4.00;;
34567;SDS011;20806;50.746;7.116;2022-08-05T08:24:36;3.70;;;3.50;;
34567;SDS011;20806;50.746;7.116;2022-08-05T08:27:02;4.07;;;3.80;;
34567;SDS011;20806;50.746;7.116;2022-08-05T08:29:29;4.30;;;4.00;;
34567;SDS011;20806;50.746;7.116;2022-08-05T08:31:55;4.40;;;4.10;;
34567;SDS011;20806;50.746;7.116;2022-08-05T08:34:22;5.28;;;4.85;;
34567;SDS011;20806;50.746;7.116;2022-08-05T08:36:48;5.47;;;5.07;;
34567;SDS011;20806;50.746;7.116;2022-08-05T08:39:14;5.07;;;4.72;;
34567;SDS011;20806;50.746;7.116;2022-08-05T08:41:46;6.05;;;5.57;;
34567;SDS011;20806;50.746;7.116;2022-08-05T08:44:16;5.95;;;5.55;;
34567;SDS011;20806;50.746;7.116;2022-08-05T08:46:43;6.20;;;5.70;;
34567;SDS011;20806;50.746;7.116;2022-08-05T08:49:12;6.68;;;6.18;;
34567;SDS011;20806;50.746;7.116;2022-08-05T08:51:38;6.35;;;5.85;;
34567;SDS011;20806;50.746;7.116;2022-08-05T08:54:05;6.47;;;5.97;;
34567;SDS011;20806;50.746;7.116;2022-08-05T08:56:31;6.73;;;6.13;;
34567;SDS011;20806;50.746;7.116;2022-08-05T08:58:57;7.25;;;6.65;;
34567;SDS011;20806;50.746;7.116;2022-08-05T09:01:24;7.95;;;7.25;;
34567;SDS011;20806;50.746;7.116;2022-08-05T09:03:51;7.50;;;6.90;;
34567;SDS011;20806;50.746;7.116;2022-08-05T09:06:17;8.25;;;7.47;;
34567;SDS011;20806;50.746;7.116;2022-08-05T09:08:44;7.70;;;6.95;;
34567;SDS011;20806;50.746;7.116;2022-08-05T09:11:10;8.93;;;8.13;;
34567;SDS011;20806;50.746;7.116;2022-08-05T09:13:37;8.55;;;7.75;;
34567;SDS011;20806;50.746;7.116;2022-08-05T09:16:03;10.20;;;9.30;;
34567;SDS011;20806;50.746;7.116;2022-08-05T09:18:32;10.33;;;9.33;;
34567;SDS011;20806;50.746;7.116;2022-08-05T09:20:58;9.15;;;8.38;;
34567;SDS011;20806;50.746;7.116;2022-08-05T09:23:24;9.17;;;8.37;;
34567;SDS011;20806;50.746;7.116;2022-08-05T09:25:51;9.73;;;8.82;;
34567;SDS011;20806;50.746;7.116;2022-08-05T09:28:21;9.65;;;8.82;;
34567;SDS011;20806;50.746;7.116;2022-08-05T09:30:55;10.70;;;9.70;;
34567;SDS011;20806;50.746;7.116;2022-08-05T09:33:21;10.43;;;9.52;;
34567;SDS011;20806;50.746;7.116;2022-08-05T09:35:57;9.90;;;9.10;;
34567;SDS011;20806;50.746;7.116;2022-08-05T09:38:23;9.38;;;8.57;;
34567;SDS011;20806;50.746;7.116;2022-08-05T09:40:50;8.50;;;7.80;;
34567;SDS011;20806;50.746;7.116;2022-08-05T09:43:24;7.75;;;7.15;;
34567;SDS011;20806;50.746;7.116;2022-08-05T09:45:50;7.80;;;7.20;;
34567;SDS011;20806;50.746;7.116;2022-08-05T09:50:52;9.17;;;8.37;;
34567;SDS011;20806;50.746;7.116;2022-08-05T09:53:18;9.52;;;8.73;;
34567;SDS011;20806;50.746;7.116;2022-08-05T09:55:45;10.63;;;9.68;;
34567;SDS011;20806;50.746;7.116;2022-08-05T09:58:12;10.63;;;9.73;;
34567;SDS011;20806;50.746;7.116;2022-08-05T10:00:38;9.87;;;9.07;;
34567;SDS011;20806;50.746;7.116;2022-08-05T10:03:08;10.07;;;9.25;;
34567;SDS011;20806;50.746;7.116;2022-08-05T10:05:34;9.53;;;8.73;;
34567;SDS011;20806;50.746;7.116;2022-08-05T10:08:04;9.70;;;8.90;;
34567;SDS011;20806;50.746;7.116;2022-08-05T10:10:32;9.70;;;8.90;;
34567;SDS011;20806;50.746;7.116;2022-08-05T10:13:01;9.88;;;9.07;;
34567;SDS011;20806;50.746;7.116;2022-08-05T10:15:28;10.70;;;9.88;;
34567;SDS011;20806;50.746;7.116;2022-08-05T10:20:34;12.10;;;11.00;;
34567;SDS011;20806;50.746;7.116;2022-08-05T10:23:01;11.40;;;10.40;;
34567;SDS011;20806;50.746;7.116;2022-08-05T10:25:27;10.73;;;9.82;;
34567;SDS011;20806;50.746;7.116;2022-08-05T10:27:53;10.27;;;9.32;;
34567;SDS011;20806;50.746;7.116;2022-08-05T10:30:19;10.40;;;9.50;;
34567;SDS011;20806;50.746;7.116;2022-08-05T10:32:46;9.85;;;8.95;;
34567;SDS011;20806;50.746;7.116;2022-08-05T10:35:12;9.00;;;8.20;;
34567;SDS011;20806;50.746;7.116;2022-08-05T10:37:39;8.00;;;7.40;;
34567;SDS011;20806;50.746;7.116;2022-08-05T10:40:07;7.53;;;6.93;;
34567;SDS011;20806;50.746;7.116;2022-08-05T10:42:34;7.53;;;7.03;;
34567;SDS011;20806;50.746;7.116;2022-08-05T10:45:05;6.95;;;6.45;;
34567;SDS011;20806;50.746;7.116;2022-08-05T10:47:32;6.38;;;5.88;;
34567;SDS011;20806;50.746;7.116;2022-08-05T10:52:40;4.75;;;4.45;;
34567;SDS011;20806;50.746;7.116;2022-08-05T10:55:11;4.18;;;3.95;;
34567;SDS011;20806;50.746;7.116;2022-08-05T10:57:38;3.53;;;3.33;;
34567;SDS011;20806;50.746;7.116;2022-08-05T11:00:18;4.18;;;3.67;;
34567;SDS011;20806;50.746;7.116;2022-08-05T11:05:29;2.92;;;2.80;;
34567;SDS011;20806;50.746;7.116;2022-08-05T11:07:55;2.60;;;2.50;;
34567;SDS011;20806;50.746;7.116;2022-08-05T11:10:23;2.40;;;2.30;;
34567;SDS011;20806;50.746;7.116;2022-08-05T11:12:49;2.03;;;1.92;;
34567;SDS011;20806;50.746;7.116;2022-08-05T11:15:16;2.28;;;1.60;;
34567;SDS011;20806;50.746;7.116;2022-08-05T11:17:43;1.57;;;1.50;;
34567;SDS011;20806;50.746;7.116;2022-08-05T11:22:54;1.30;;;1.30;;
34567;SDS011;20806;50.746;7.116;2022-08-05T11:25:30;1.02;;;1.02;;
34567;SDS011;20806;50.746;7.116;2022-08-05T11:27:56;1.20;;;1.10;;
34567;SDS011;20806;50.746;7.116;2022-08-05T11:33:24;1.00;;;0.85;;
34567;SDS011;20806;50.746;7.116;2022-08-05T11:35:55;1.33;;;0.88;;
34567;SDS011;20806;50.746;7.116;2022-08-05T11:41:15;1.20;;;1.00;;
34567;SDS011;20806;50.746;7.116;2022-08-05T11:43:42;0.70;;;0.70;;
34567;SDS011;20806;50.746;7.116;2022-08-05T11:46:08;0.60;;;0.60;;
34567;SDS011;20806;50.746;7.116;2022-08-05T11:48:35;1.75;;;0.68;;
34567;SDS011;20806;50.746;7.116;2022-08-05T11:51:06;0.95;;;0.70;;
34567;SDS011;20806;50.746;7.116;2022-08-05T11:53:32;0.60;;;0.60;;
34567;SDS011;20806;50.746;7.116;2022-08-05T11:55:59;0.90;;;0.70;;
34567;SDS011;20806;50.746;7.116;2022-08-05T11:58:29;1.40;;;0.80;;
34567;SDS011;20806;50.746;7.116;2022-08-05T12:03:54;0.67;;;0.60;;
34567;SDS011;20806;50.746;7.116;2022-08-05T12:06:24;0.50;;;0.50;;
34567;SDS011;20806;50.746;7.116;2022-08-05T12:08:53;0.40;;;0.40;;
34567;SDS011;20806;50.746;7.116;2022-08-05T12:11:21;0.50;;;0.47;;
34567;SDS011;20806;50.746;7.116;2022-08-05T12:13:57;0.75;;;0.50;;
34567;SDS011;20806;50.746;7.116;2022-08-05T12:16:24;0.70;;;0.40;;
34567;SDS011;20806;50.746;7.116;2022-08-05T12:18:50;0.45;;;0.40;;
34567;SDS011;20806;50.746;7.116;2022-08-05T12:21:17;0.47;;;0.40;;
34567;SDS011;20806;50.746;7.116;2022-08-05T12:26:18;0.93;;;0.70;;
34567;SDS011;20806;50.746;7.116;2022-08-05T12:28:45;0.45;;;0.40;;
34567;SDS011;20806;50.746;7.116;2022-08-05T12:31:11;0.55;;;0.40;;
34567;SDS011;20806;50.746;7.116;2022-08-05T12:33:38;0.40;;;0.40;;
34567;SDS011;20806;50.746;7.116;2022-08-05T12:36:04;0.20;;;0.20;;
34567;SDS011;20806;50.746;7.116;2022-08-05T12:38:31;0.30;;;0.30;;
34567;SDS011;20806;50.746;7.116;2022-08-05T12:40:57;0.30;;;0.30;;
34567;SDS011;20806;50.746;7.116;2022-08-05T12:43:25;0.38;;;0.38;;
34567;SDS011;20806;50.746;7.116;2022-08-05T12:45:51;0.40;;;0.30;;
34567;SDS011;20806;50.746;7.116;2022-08-05T12:48:18;0.50;;;0.40;;
34567;SDS011;20806;50.746;7.116;2022-08-05T12:51:07;0.30;;;0.30;;
34567;SDS011;20806;50.746;7.116;2022-08-05T12:53:30;0.50;;;0.30;;
34567;SDS011;20806;50.746;7.116;2022-08-05T12:55:56;0.40;;;0.30;;
34567;SDS011;20806;50.746;7.116;2022-08-05T12:58:22;0.57;;;0.20;;
34567;SDS011;20806;50.746;7.116;2022-08-05T13:00:48;0.20;;;0.20;;
34567;SDS011;20806;50.746;7.116;2022-08-05T13:03:15;1.60;;;0.20;;
34567;SDS011;20806;50.746;7.116;2022-08-05T13:05:41;0.40;;;0.20;;
34567;SDS011;20806;50.746;7.116;2022-08-05T13:08:07;0.25;;;0.20;;
34567;SDS011;20806;50.746;7.116;2022-08-05T13:10:33;0.70;;;0.20;;
34567;SDS011;20806;50.746;7.116;2022-08-05T13:13:06;0.30;;;0.22;;
34567;SDS011;20806;50.746;7.116;2022-08-05T13:15:32;0.43;;;0.30;;
34567;SDS011;20806;50.746;7.116;2022-08-05T13:17:59;0.40;;;0.20;;
34567;SDS011;20806;50.746;7.116;2022-08-05T13:20:32;0.45;;;0.20;;
34567;SDS011;20806;50.746;7.116;2022-08-05T13:22:58;0.43;;;0.20;;
34567;SDS011;20806;50.746;7.116;2022-08-05T13:25:24;0.45;;;0.20;;
34567;SDS011;20806;50.746;7.116;2022-08-05T13:27:53;0.10;;;0.10;;
34567;SDS011;20806;50.746;7.116;2022-08-05T13:30:23;0.40;;;0.20;;
34567;SDS011;20806;50.746;7.116;2022-08-05T13:32:50;0.30;;;0.20;;
34567;SDS011;20806;50.746;7.116;2022-08-05T13:35:16;0.60;;;0.20;;
34567;SDS011;20806;50.746;7.116;2022-08-05T13:37:42;0.22;;;0.20;;
34567;SDS011;20806;50.746;7.116;2022-08-05T13:40:09;0.60;;;0.20;;
34567;SDS011;20806;50.746;7.116;2022-08-05T13:42:35;0.38;;;0.20;;
34567;SDS011;20806;50.746;7.116;2022-08-05T13:45:02;0.20;;;0.20;;
34567;SDS011;20806;50.746;7.116;2022-08-05T13:47:28;0.60;;;0.20;;
34567;SDS011;20806;50.746;7.116;2022-08-05T13:49:54;0.28;;;0.20;;
34567;SDS011;20806;50.746;7.116;2022-08-05T13:52:24;0.50;;;0.20;;
34567;SDS011;20806;50.746;7.116;2022-08-05T13:54:50;0.50;;;0.20;;
34567;SDS011;20806;50.746;7.116;2022-08-05T13:57:16;0.30;;;0.20;;
34567;SDS011;20806;50.746;7.116;2022-08-05T13:59:43;0.40;;;0.25;;
34567;SDS011;20806;50.746;7.116;2022-08-05T14:02:10;1.30;;;0.20;;
34567;SDS011;20806;50.746;7.116;2022-08-05T14:04:38;0.30;;;0.20;;
34567;SDS011;20806;50.746;7.116;2022-08-05T14:07:34;1.50;;;0.30;;
34567;SDS011;20806;50.746;7.116;2022-08-05T14:10:04;0.75;;;0.20;;
34567;SDS011;20806;50.746;7.116;2022-08-05T14:12:30;0.28;;;0.20;;
34567;SDS011;20806;50.746;7.116;2022-08-05T14:14:56;0.30;;;0.22;;
34567;SDS011;20806;50.746;7.116;2022-08-05T14:17:22;0.50;;;0.20;;
34567;SDS011;20806;50.746;7.116;2022-08-05T14:19:50;0.40;;;0.22;;
34567;SDS011;20806;50.746;7.116;2022-08-05T14:22:16;0.50;;;0.25;;
34567;SDS011;20806;50.746;7.116;2022-08-05T14:24:42;1.00;;;0.30;;
34567;SDS011;20806;50.746;7.116;2022-08-05T14:27:08;0.50;;;0.20;;
34567;SDS011;20806;50.746;7.116;2022-08-05T14:29:34;0.40;;;0.40;;
34567;SDS011;20806;50.746;7.116;2022-08-05T14:32:00;0.50;;;0.30;;
34567;SDS011;20806;50.746;7.116;2022-08-05T14:34:26;0.93;;;0.33;;
34567;SDS011;20806;50.746;7.116;2022-08-05T14:36:53;0.47;;;0.30;;
34567;SDS011;20806;50.746;7.116;2022-08-05T14:39:20;0.60;;;0.30;;
34567;SDS011;20806;50.746;7.116;2022-08-05T14:41:46;0.70;;;0.30;;
34567;SDS011;20806;50.746;7.116;2022-08-05T14:44:12;0.32;;;0.25;;
34567;SDS011;20806;50.746;7.116;2022-08-05T14:46:38;0.50;;;0.40;;
34567;SDS011;20806;50.746;7.116;2022-08-05T14:49:04;0.98;;;0.40;;
34567;SDS011;20806;50.746;7.116;2022-08-05T14:51:30;0.40;;;0.35;;
34567;SDS011;20806;50.746;7.116;2022-08-05T14:53:57;0.83;;;0.40;;
34567;SDS011;20806;50.746;7.116;2022-08-05T14:56:23;0.30;;;0.30;;
34567;SDS011;20806;50.746;7.116;2022-08-05T14:58:49;0.30;;;0.30;;
34567;SDS011;20806;50.746;7.116;2022-08-05T15:01:16;0.90;;;0.40;;
34567;SDS011;20806;50.746;7.116;2022-08-05T15:03:42;0.43;;;0.35;;
34567;SDS011;20806;50.746;7.116;2022-08-05T15:06:08;0.30;;;0.28;;
34567;SDS011;20806;50.746;7.116;2022-08-05T15:08:34;1.30;;;0.40;;
34567;SDS011;20806;50.746;7.116;2022-08-05T15:11:00;0.30;;;0.30;;
34567;SDS011;20806;50.746;7.116;2022-08-05T15:13:26;0.45;;;0.40;;
34567;SDS011;20806;50.746;7.116;2022-08-05T15:15:52;0.43;;;0.40;;
34567;SDS011;20806;50.746;7.116;2022-08-05T15:18:18;0.55;;;0.50;;